createdAt,value
2022-09-12T00:00:32.756Z,14.5
2022-09-12T00:01:31.722Z,14.5
2022-09-12T00:02:31.584Z,14.5
2022-09-12T00:03:31.584Z,14.4
2022-09-12T00:04:33.951Z,14.5
2022-09-12T00:05:31.995Z,14.5
2022-09-12T00:06:33.673Z,14.4
2022-09-12T00:07:31.765Z,14.1
2022-09-12T00:08:31.872Z,14.3
2022-09-12T00:09:31.844Z,14.1
2022-09-12T00:10:31.851Z,14.1
2022-09-12T00:11:32.023Z,14.1
2022-09-12T00:12:34.835Z,14
2022-09-12T00:13:40.917Z,14.3
2022-09-12T00:14:32.012Z,14.3
2022-09-12T00:15:32.324Z,14
2022-09-12T00:16:32.162Z,14.1
2022-09-12T00:17:32.087Z,14
2022-09-12T00:18:32.111Z,14.1
2022-09-12T00:19:32.468Z,14.2
2022-09-12T00:20:32.759Z,14.2
2022-09-12T00:21:32.357Z,14.3
2022-09-12T00:22:32.632Z,14.3
2022-09-12T00:23:33.850Z,14.3
2022-09-12T00:24:32.298Z,14.3
2022-09-12T00:25:32.343Z,14.2
2022-09-12T00:26:32.365Z,14
2022-09-12T00:27:32.679Z,14.1
2022-09-12T00:28:33.640Z,14.1
2022-09-12T00:29:32.497Z,14
2022-09-12T00:30:32.596Z,14.2
2022-09-12T00:31:32.642Z,14
2022-09-12T00:32:36.984Z,14.2
2022-09-12T00:33:32.577Z,14.1
2022-09-12T00:34:33.709Z,14
2022-09-12T00:35:32.695Z,14.3
2022-09-12T00:36:33.891Z,14.2
2022-09-12T00:37:32.977Z,14.3
2022-09-12T00:38:34.807Z,14.1
2022-09-12T00:39:32.822Z,14.2
2022-09-12T00:40:34.206Z,14.3
2022-09-12T00:41:35.910Z,14.3
2022-09-12T00:42:33.717Z,14
2022-09-12T00:43:35.808Z,13.8
2022-09-12T00:44:33.285Z,13.8
2022-09-12T00:45:33.295Z,14
2022-09-12T00:46:33.090Z,14
2022-09-12T00:47:35.293Z,13.9
2022-09-12T00:48:33.237Z,14
2022-09-12T00:49:33.428Z,13.9
2022-09-12T00:50:35.338Z,13.8
2022-09-12T00:51:36.633Z,13.9
2022-09-12T00:52:35.402Z,14
2022-09-12T00:53:57.210Z,13.9
2022-09-12T00:54:33.589Z,14
2022-09-12T00:55:33.750Z,14.1
2022-09-12T00:56:34.856Z,14.1
2022-09-12T00:58:34.756Z,14
2022-09-12T00:59:34.125Z,14
2022-09-12T01:00:35.500Z,14
2022-09-12T01:01:34.283Z,13.9
2022-09-12T01:02:36.106Z,13.9
2022-09-12T01:03:34.065Z,14.1
2022-09-12T01:04:34.146Z,13.9
2022-09-12T01:06:50.323Z,13.9
2022-09-12T01:07:43.447Z,13.8
2022-09-12T01:08:35.558Z,14
2022-09-12T01:11:44.295Z,14
2022-09-12T01:12:41.449Z,13.9
2022-09-12T01:15:23.491Z,13.9
2022-09-12T01:16:21.180Z,13.7
2022-09-12T01:17:22.415Z,13.8
2022-09-12T01:18:20.715Z,13.9
2022-09-12T01:19:35.393Z,13.7
2022-09-12T01:20:31.920Z,13.8
2022-09-12T01:21:39.011Z,13.6
2022-09-12T01:22:20.857Z,13.7
2022-09-12T01:23:20.866Z,13.8
2022-09-12T01:24:20.926Z,13.8
2022-09-12T01:25:21.247Z,13.8
2022-09-12T01:26:21.963Z,13.8
2022-09-12T01:27:22.873Z,13.8
2022-09-12T01:28:24.679Z,13.7
2022-09-12T01:29:21.076Z,13.7
2022-09-12T01:30:21.322Z,13.7
2022-09-12T01:31:21.751Z,13.7
2022-09-12T01:32:26.279Z,13.7
2022-09-12T01:33:21.790Z,13.8
2022-09-12T01:34:21.487Z,13.7
2022-09-12T01:35:21.646Z,13.6
2022-09-12T01:36:23.461Z,13.8
2022-09-12T01:37:21.395Z,13.7
2022-09-12T01:38:21.699Z,13.7
2022-09-12T01:39:21.452Z,13.8
2022-09-12T01:40:21.469Z,13.9
2022-09-12T01:41:21.571Z,13.8
2022-09-12T01:42:21.543Z,13.9
2022-09-12T01:43:21.596Z,13.9
2022-09-12T01:44:23.054Z,13.9
2022-09-12T01:45:21.960Z,13.9
2022-09-12T01:46:21.665Z,14
2022-09-12T01:47:22.168Z,13.9
2022-09-12T01:48:22.761Z,13.9
2022-09-12T01:49:22.814Z,13.7
2022-09-12T01:50:21.892Z,13.7
2022-09-12T01:51:21.887Z,13.8
2022-09-12T01:52:21.931Z,13.9
2022-09-12T01:53:23.882Z,14
2022-09-12T01:54:24.886Z,13.9
2022-09-12T01:55:22.070Z,13.8
2022-09-12T01:56:22.878Z,13.8
2022-09-12T01:57:22.057Z,13.9
2022-09-12T01:58:22.130Z,14
2022-09-12T01:59:23.800Z,13.9
2022-09-12T02:00:22.455Z,13.9
2022-09-12T02:01:24.042Z,14.1
2022-09-12T02:02:23.977Z,14.2
2022-09-12T02:03:22.502Z,14.3
2022-09-12T02:04:22.918Z,14.3
2022-09-12T02:05:22.737Z,14.3
2022-09-12T02:06:22.798Z,14.3
2022-09-12T02:07:23.012Z,14.2
2022-09-12T02:08:28.967Z,14.1
2022-09-12T02:09:23.257Z,13.9
2022-09-12T02:10:23.312Z,14
2022-09-12T02:11:23.480Z,13.8
2022-09-12T02:12:23.173Z,13.9
2022-09-12T02:13:23.246Z,13.9
2022-09-12T02:14:23.284Z,13.8
2022-09-12T02:15:23.366Z,13.7
2022-09-12T02:16:24.384Z,13.7
2022-09-12T02:17:24.929Z,13.6
2022-09-12T02:18:26.770Z,13.6
2022-09-12T02:19:23.968Z,13.7
2022-09-12T02:20:46.748Z,13.7
2022-09-12T02:21:23.831Z,13.9
2022-09-12T02:22:23.746Z,14
2022-09-12T02:23:23.690Z,13.8
2022-09-12T02:24:23.705Z,13.6
2022-09-12T02:25:25.625Z,13.7
2022-09-12T02:26:24.062Z,13.9
2022-09-12T02:27:25.863Z,13.9
2022-09-12T02:28:23.830Z,13.9
2022-09-12T02:29:25.608Z,13.9
2022-09-12T02:30:24.217Z,13.7
2022-09-12T02:31:26.888Z,13.9
2022-09-12T02:32:25.772Z,13.7
2022-09-12T02:33:24.232Z,13.6
2022-09-12T02:34:24.048Z,13.5
2022-09-12T02:35:24.054Z,13.4
2022-09-12T02:36:25.144Z,13.4
2022-09-12T02:37:24.149Z,13.3
2022-09-12T02:38:26.187Z,13.4
2022-09-12T02:39:24.167Z,13.5
2022-09-12T02:40:26.002Z,13.4
2022-09-12T02:41:24.464Z,13.3
2022-09-12T02:42:24.621Z,13.5
2022-09-12T02:43:24.473Z,13.4
2022-09-12T02:44:24.330Z,13.4
2022-09-12T02:45:24.490Z,13.4
2022-09-12T02:46:26.630Z,13.4
2022-09-12T02:47:26.169Z,13.3
2022-09-12T02:48:24.635Z,13.4
2022-09-12T02:49:24.575Z,13.3
2022-09-12T02:50:26.788Z,13.2
2022-09-12T02:51:25.060Z,13.3
2022-09-12T02:52:24.590Z,13.5
2022-09-12T02:53:24.762Z,13.5
2022-09-12T02:54:29.698Z,13.7
2022-09-12T02:55:29.997Z,13.6
2022-09-12T02:56:29.780Z,13.4
2022-09-12T02:57:24.948Z,13.6
2022-09-12T02:58:27.202Z,13.6
2022-09-12T02:59:24.820Z,13.5
2022-09-12T03:00:25.881Z,13.8
2022-09-12T03:01:24.864Z,13.8
2022-09-12T03:02:25.420Z,13.6
2022-09-12T03:03:24.968Z,13.7
2022-09-12T03:04:24.976Z,13.5
2022-09-12T03:05:25.037Z,13.4
2022-09-12T03:06:27.003Z,13.5
2022-09-12T03:07:25.148Z,13.6
2022-09-12T03:08:25.083Z,13.7
2022-09-12T03:09:27.178Z,13.8
2022-09-12T03:10:25.278Z,13.7
2022-09-12T03:11:25.325Z,13.6
2022-09-12T03:12:25.547Z,13.5
2022-09-12T03:13:25.757Z,13.2
2022-09-12T03:14:25.576Z,13.2
2022-09-12T03:15:27.303Z,13.1
2022-09-12T03:16:25.739Z,13
2022-09-12T03:17:26.096Z,13.1
2022-09-12T03:18:26.251Z,13
2022-09-12T03:19:25.922Z,13
2022-09-12T03:20:26.060Z,13.3
2022-09-12T03:21:26.351Z,13.4
2022-09-12T03:22:26.148Z,13.3
2022-09-12T03:23:27.077Z,13.4
2022-09-12T03:24:26.269Z,13.5
2022-09-12T03:25:26.477Z,13.2
2022-09-12T03:26:27.542Z,13.2
2022-09-12T03:27:28.030Z,13.4
2022-09-12T03:28:27.135Z,13.5
2022-09-12T03:29:26.515Z,13.4
2022-09-12T03:30:26.760Z,13.2
2022-09-12T03:31:28.815Z,13.4
2022-09-12T03:32:28.772Z,13.5
2022-09-12T03:33:27.061Z,13.3
2022-09-12T03:34:27.214Z,13.2
2022-09-12T03:35:27.126Z,13.1
2022-09-12T03:37:10.180Z,13
2022-09-12T03:37:44.440Z,13.1
2022-09-12T03:38:26.895Z,13.1
2022-09-12T03:39:27.014Z,13.2
2022-09-12T03:40:27.094Z,13.1
2022-09-12T03:41:27.013Z,13.1
2022-09-12T03:42:27.444Z,13.2
2022-09-12T03:43:27.039Z,13.2
2022-09-12T03:44:27.059Z,13.1
2022-09-12T03:45:29.731Z,13
2022-09-12T03:46:27.891Z,13
2022-09-12T03:47:27.213Z,13
2022-09-12T03:48:27.225Z,13
2022-09-12T03:49:29.733Z,13
2022-09-12T03:50:27.302Z,13
2022-09-12T03:51:27.383Z,13
2022-09-12T03:52:27.401Z,13.1
2022-09-12T03:53:28.417Z,13.1
2022-09-12T03:54:28.498Z,13.1
2022-09-12T03:55:27.465Z,13.1
2022-09-12T03:56:27.495Z,13.2
2022-09-12T03:57:32.755Z,13.1
2022-09-12T03:58:27.574Z,13.1
2022-09-12T03:59:32.607Z,12.9
2022-09-12T04:00:28.545Z,12.9
2022-09-12T04:01:28.595Z,13
2022-09-12T04:02:27.735Z,13
2022-09-12T04:03:27.726Z,13
2022-09-12T04:04:28.006Z,12.9
2022-09-12T04:05:27.864Z,12.9
2022-09-12T04:06:27.836Z,12.9
2022-09-12T04:07:31.070Z,12.9
2022-09-12T04:08:28.095Z,12.9
2022-09-12T04:09:28.301Z,12.8
2022-09-12T04:10:28.419Z,12.8
2022-09-12T04:11:27.991Z,12.8
2022-09-12T04:12:28.391Z,12.9
2022-09-12T04:13:28.038Z,12.9
2022-09-12T04:14:28.097Z,12.9
2022-09-12T04:15:28.233Z,12.8
2022-09-12T04:16:28.194Z,12.9
2022-09-12T04:17:32.731Z,13
2022-09-12T04:18:28.206Z,13
2022-09-12T04:19:28.391Z,12.9
2022-09-12T04:20:28.638Z,12.9
2022-09-12T04:21:31.465Z,12.8
2022-09-12T04:22:28.590Z,12.9
2022-09-12T04:23:28.592Z,12.9
2022-09-12T04:24:28.607Z,12.8
2022-09-12T04:25:28.916Z,12.8
2022-09-12T04:26:28.733Z,12.8
2022-09-12T04:27:29.927Z,12.8
2022-09-12T04:28:28.859Z,12.8
2022-09-12T04:29:28.928Z,12.8
2022-09-12T04:31:27.936Z,12.8
2022-09-12T04:31:42.087Z,12.8
2022-09-12T04:32:29.295Z,12.8
2022-09-12T04:33:29.190Z,12.7
2022-09-12T04:34:29.248Z,12.8
2022-09-12T04:35:29.346Z,12.7
2022-09-12T04:36:29.428Z,12.8
2022-09-12T04:37:31.048Z,12.8
2022-09-12T04:38:29.474Z,12.8
2022-09-12T04:39:29.556Z,12.7
2022-09-12T04:40:30.219Z,12.6
2022-09-12T04:41:34.095Z,12.8
2022-09-12T04:42:29.722Z,12.8
2022-09-12T04:43:29.799Z,12.8
2022-09-12T04:44:31.138Z,12.8
2022-09-12T04:45:30.094Z,12.8
2022-09-12T04:46:29.763Z,12.9
2022-09-12T04:47:29.823Z,12.8
2022-09-12T04:48:29.997Z,12.7
2022-09-12T04:49:32.858Z,12.7
2022-09-12T04:50:29.960Z,12.8
2022-09-12T04:51:30.004Z,12.9
2022-09-12T04:52:30.433Z,12.9
2022-09-12T04:53:31.958Z,12.8
2022-09-12T04:54:30.153Z,12.7
2022-09-12T04:55:30.183Z,12.7
2022-09-12T04:56:30.190Z,13
2022-09-12T04:57:30.943Z,13.1
2022-09-12T04:58:32.949Z,13.1
2022-09-12T04:59:30.284Z,13
2022-09-12T05:00:30.500Z,12.8
2022-09-12T05:01:30.593Z,12.8
2022-09-12T05:02:30.417Z,12.7
2022-09-12T05:03:30.690Z,12.6
2022-09-12T05:04:32.654Z,12.8
2022-09-12T05:05:30.497Z,13
2022-09-12T05:06:30.874Z,13.1
2022-09-12T05:07:34.640Z,13.2
2022-09-12T05:08:30.749Z,13.2
2022-09-12T05:09:30.840Z,13.2
2022-09-12T05:10:30.938Z,13
2022-09-12T05:11:47.106Z,12.7
2022-09-12T05:12:31.532Z,12.8
2022-09-12T05:13:32.981Z,12.9
2022-09-12T05:14:31.142Z,12.9
2022-09-12T05:15:30.843Z,12.9
2022-09-12T05:16:34.821Z,12.9
2022-09-12T05:17:31.057Z,12.9
2022-09-12T05:18:30.995Z,12.8
2022-09-12T05:19:33.552Z,12.7
2022-09-12T05:20:31.012Z,12.6
2022-09-12T05:21:31.199Z,12.5
2022-09-12T05:22:31.489Z,12.6
2022-09-12T05:23:31.134Z,12.6
2022-09-12T05:24:31.187Z,12.7
2022-09-12T05:25:33.077Z,12.8
2022-09-12T05:26:31.441Z,12.9
2022-09-12T05:27:31.294Z,13
2022-09-12T05:28:32.516Z,12.9
2022-09-12T05:29:31.498Z,12.9
2022-09-12T05:30:31.501Z,13
2022-09-12T05:31:34.936Z,13.1
2022-09-12T05:32:31.437Z,13
2022-09-12T05:33:31.492Z,12.9
2022-09-12T05:34:31.596Z,12.9
2022-09-12T05:35:31.714Z,13
2022-09-12T05:36:31.750Z,13.2
2022-09-12T05:37:36.819Z,13.2
2022-09-12T05:38:31.933Z,13
2022-09-12T05:39:32.278Z,13
2022-09-12T05:40:32.142Z,13
2022-09-12T05:41:40.769Z,13.1
2022-09-12T05:42:32.270Z,13.2
2022-09-12T05:43:38.356Z,13.1
2022-09-12T05:44:33.548Z,13.2
2022-09-12T05:45:33.573Z,13.1
2022-09-12T05:46:32.700Z,13.1
2022-09-12T05:47:32.566Z,13.1
2022-09-12T05:48:32.552Z,13.2
2022-09-12T05:49:35.688Z,13.2
2022-09-12T05:50:33.031Z,13.3
2022-09-12T05:51:35.727Z,13.2
2022-09-12T05:52:35.774Z,13.3
2022-09-12T05:53:33.105Z,13.3
2022-09-12T05:54:32.853Z,13.3
2022-09-12T05:55:33.455Z,13.4
2022-09-12T05:56:33.030Z,13.4
2022-09-12T05:57:33.032Z,13.3
2022-09-12T05:58:33.210Z,13.4
2022-09-12T05:59:38.359Z,13.4
2022-09-12T06:00:33.761Z,13.5
2022-09-12T06:01:37.912Z,13.6
2022-09-12T06:02:35.461Z,13.6
2022-09-12T06:03:33.191Z,13.6
2022-09-12T06:04:34.292Z,13.5
2022-09-12T06:05:33.958Z,13.6
2022-09-12T06:06:33.465Z,13.7
2022-09-12T06:07:33.393Z,13.7
2022-09-12T06:08:33.455Z,13.7
2022-09-12T06:09:38.493Z,13.7
2022-09-12T06:10:38.463Z,13.7
2022-09-12T06:11:38.335Z,13.9
2022-09-12T06:12:33.559Z,13.9
2022-09-12T06:13:37.636Z,13.9
2022-09-12T06:14:33.842Z,13.9
2022-09-12T06:15:38.998Z,14
2022-09-12T06:16:33.736Z,13.9
2022-09-12T06:17:34.841Z,14
2022-09-12T06:18:33.785Z,13.9
2022-09-12T06:19:34.059Z,13.9
2022-09-12T06:20:34.092Z,14
2022-09-12T06:21:37.683Z,14
2022-09-12T06:22:34.849Z,14.1
2022-09-12T06:23:36.945Z,14.2
2022-09-12T06:24:34.529Z,14.2
2022-09-12T06:25:34.136Z,14.2
2022-09-12T06:26:34.879Z,14.2
2022-09-12T06:27:36.310Z,14.2
2022-09-12T06:28:40.147Z,14.1
2022-09-12T06:29:34.176Z,14.2
2022-09-12T06:30:34.603Z,14.3
2022-09-12T06:31:42.437Z,14.4
2022-09-12T06:32:34.208Z,14.5
2022-09-12T06:34:54.676Z,14.6
2022-09-12T06:34:55.516Z,14.4
2022-09-12T06:35:34.318Z,14.3
2022-09-12T06:36:39.336Z,14.4
2022-09-12T06:37:00.821Z,14.4
2022-09-12T06:37:34.542Z,14.3
2022-09-12T06:38:34.398Z,14.3
2022-09-12T06:39:34.560Z,14.4
2022-09-12T06:40:34.469Z,14.5
2022-09-12T06:41:36.064Z,14.7
2022-09-12T06:43:13.179Z,14.8
2022-09-12T06:43:37.169Z,14.7
2022-09-12T06:44:39.793Z,14.7
2022-09-12T06:45:34.754Z,14.8
2022-09-12T06:46:57.141Z,14.8
2022-09-12T06:47:49.408Z,15
2022-09-12T06:49:35.244Z,14.9
2022-09-12T06:50:35.076Z,14.8
2022-09-12T06:50:35.101Z,14.9
2022-09-12T06:51:36.625Z,14.7
2022-09-12T06:52:35.253Z,14.8
2022-09-12T06:53:35.423Z,14.8
2022-09-12T06:54:35.328Z,14.8
2022-09-12T06:55:35.455Z,14.9
2022-09-12T06:56:35.531Z,14.9
2022-09-12T06:57:35.528Z,15
2022-09-12T06:58:35.668Z,15.1
2022-09-12T06:59:35.672Z,15.2
2022-09-12T07:00:35.729Z,15.2
2022-09-12T07:01:35.745Z,15.3
2022-09-12T07:02:35.777Z,15.3
2022-09-12T07:03:35.932Z,15.4
2022-09-12T07:04:36.200Z,15.4
2022-09-12T07:05:36.209Z,15.5
2022-09-12T07:06:35.946Z,15.4
2022-09-12T07:07:35.982Z,15.3
2022-09-12T07:08:36.006Z,15.3
2022-09-12T07:10:04.040Z,15.4
2022-09-12T07:10:36.223Z,15.3
2022-09-12T07:11:37.360Z,15.3
2022-09-12T07:12:36.135Z,15.4
2022-09-12T07:13:36.317Z,15.2
2022-09-12T07:14:36.239Z,15.4
2022-09-12T07:15:36.327Z,15.4
2022-09-12T07:16:36.602Z,15.4
2022-09-12T07:17:36.277Z,15.6
2022-09-12T07:18:41.319Z,15.7
2022-09-12T07:19:37.504Z,15.7
2022-09-12T07:20:36.466Z,15.9
2022-09-12T07:21:36.424Z,15.8
2022-09-12T07:22:36.499Z,15.8
2022-09-12T07:23:36.826Z,15.8
2022-09-12T07:24:36.830Z,16
2022-09-12T07:25:36.617Z,16
2022-09-12T07:26:36.648Z,15.9
2022-09-12T07:27:36.656Z,15.8
2022-09-12T07:28:36.720Z,15.8
2022-09-12T07:29:41.707Z,15.8
2022-09-12T07:30:36.834Z,15.8
2022-09-12T07:31:37.099Z,15.8
2022-09-12T07:32:42.202Z,15.9
2022-09-12T07:33:37.187Z,15.9
2022-09-12T07:34:46.896Z,16
2022-09-12T07:35:36.934Z,16
2022-09-12T07:36:36.967Z,16.1
2022-09-12T07:37:38.571Z,15.9
2022-09-12T07:38:37.147Z,15.9
2022-09-12T07:39:37.166Z,16.1
2022-09-12T07:40:38.034Z,16.2
2022-09-12T07:41:40.340Z,16.2
2022-09-12T07:42:37.292Z,16.3
2022-09-12T07:43:39.161Z,16.2
2022-09-12T07:44:42.219Z,16.2
2022-09-12T07:45:37.330Z,16.3
2022-09-12T07:46:37.790Z,16.4
2022-09-12T07:47:37.532Z,16.3
2022-09-12T07:48:38.623Z,16.3
2022-09-12T07:49:37.432Z,16.3
2022-09-12T07:50:39.243Z,16.3
2022-09-12T07:51:39.132Z,16.3
2022-09-12T07:52:37.846Z,16.3
2022-09-12T07:53:37.563Z,16.4
2022-09-12T07:54:37.594Z,16.3
2022-09-12T07:55:38.096Z,16.3
2022-09-12T07:56:39.286Z,16.3
2022-09-12T07:57:38.037Z,16.4
2022-09-12T07:58:38.090Z,16.5
2022-09-12T07:59:51.860Z,16.6
2022-09-12T08:00:38.112Z,16.6
2022-09-12T08:01:38.251Z,16.6
2022-09-12T08:02:39.825Z,16.6
2022-09-12T08:03:38.535Z,16.7
2022-09-12T08:04:38.395Z,16.7
2022-09-12T08:05:43.347Z,16.6
2022-09-12T08:06:43.345Z,16.5
2022-09-12T08:07:38.527Z,16.6
2022-09-12T08:08:38.553Z,16.7
2022-09-12T08:09:38.581Z,16.8
2022-09-12T08:10:38.699Z,16.9
2022-09-12T08:11:39.034Z,17
2022-09-12T08:12:38.843Z,17.1
2022-09-12T08:13:38.725Z,17.2
2022-09-12T08:14:39.248Z,17.1
2022-09-12T08:15:39.084Z,17.1
2022-09-12T08:16:38.863Z,17.2
2022-09-12T08:17:38.880Z,17.2
2022-09-12T08:18:39.279Z,17.3
2022-09-12T08:19:39.030Z,17.2
2022-09-12T08:20:39.118Z,17.3
2022-09-12T08:21:41.812Z,17.3
2022-09-12T08:22:39.066Z,17.3
2022-09-12T08:23:39.921Z,17.4
2022-09-12T08:24:39.229Z,17.6
2022-09-12T08:25:39.509Z,17.6
2022-09-12T08:26:39.519Z,17.5
2022-09-12T08:27:39.269Z,17.3
2022-09-12T08:28:39.282Z,17.3
2022-09-12T08:29:39.343Z,17.3
2022-09-12T08:30:39.370Z,17.4
2022-09-12T08:31:41.237Z,17.5
2022-09-12T08:32:39.403Z,17.5
2022-09-12T08:33:39.567Z,17.6
2022-09-12T08:34:39.450Z,17.8
2022-09-12T08:35:39.512Z,17.9
2022-09-12T08:36:39.660Z,17.9
2022-09-12T08:37:43.679Z,18
2022-09-12T08:38:39.594Z,18.2
2022-09-12T08:39:39.658Z,18.2
2022-09-12T08:40:41.105Z,18.3
2022-09-12T08:41:39.977Z,18.2
2022-09-12T08:42:40.002Z,18.3
2022-09-12T08:45:07.087Z,18.4
2022-09-12T08:45:39.864Z,18.5
2022-09-12T08:46:40.110Z,18.6
2022-09-12T08:47:39.911Z,18.5
2022-09-12T08:48:40.048Z,18.5
2022-09-12T08:49:40.080Z,18.6
2022-09-12T08:50:41.172Z,18.7
2022-09-12T08:51:40.177Z,18.7
2022-09-12T08:52:40.070Z,18.6
2022-09-12T08:53:40.176Z,18.6
2022-09-12T08:54:42.160Z,18.6
2022-09-12T08:55:40.427Z,18.6
2022-09-12T08:56:40.474Z,18.6
2022-09-12T08:57:40.602Z,18.8
2022-09-12T08:58:40.298Z,18.9
2022-09-12T08:59:40.372Z,18.9
2022-09-12T09:00:40.341Z,18.8
2022-09-12T09:01:40.429Z,18.8
2022-09-12T09:02:40.723Z,18.8
2022-09-12T09:03:40.440Z,18.9
2022-09-12T09:04:40.474Z,19
2022-09-12T09:05:40.607Z,18.7
2022-09-12T09:06:40.547Z,18.6
2022-09-12T09:07:40.603Z,18.5
2022-09-12T09:08:40.720Z,18.7
2022-09-12T09:09:40.778Z,18.7
2022-09-12T09:10:41.320Z,18.8
2022-09-12T09:11:40.929Z,18.9
2022-09-12T09:12:53.217Z,18.7
2022-09-12T09:13:41.042Z,18.8
2022-09-12T09:14:41.095Z,18.9
2022-09-12T09:15:41.226Z,19
2022-09-12T09:16:41.168Z,19.1
2022-09-12T09:17:41.521Z,19.2
2022-09-12T09:18:41.326Z,19.4
2022-09-12T09:19:41.403Z,19.5
2022-09-12T09:20:41.432Z,19.5
2022-09-12T09:21:41.498Z,19.5
2022-09-12T09:22:41.517Z,19.7
2022-09-12T09:23:41.584Z,19.8
2022-09-12T09:24:41.836Z,20
2022-09-12T09:25:41.976Z,19.8
2022-09-12T09:26:42.041Z,19.7
2022-09-12T09:27:47.118Z,19.8
2022-09-12T09:28:41.814Z,19.9
2022-09-12T09:29:41.863Z,19.9
2022-09-12T09:30:42.081Z,20.1
2022-09-12T09:31:46.851Z,20.3
2022-09-12T09:32:41.860Z,20.3
2022-09-12T09:33:41.934Z,20.2
2022-09-12T09:34:42.467Z,20.1
2022-09-12T09:35:42.007Z,20.1
2022-09-12T09:36:46.995Z,20.2
2022-09-12T09:37:42.075Z,20.3
2022-09-12T09:38:58.695Z,20.6
2022-09-12T09:39:42.193Z,20.7
2022-09-12T09:40:42.647Z,20.9
2022-09-12T09:41:42.264Z,20.9
2022-09-12T09:42:42.253Z,21
2022-09-12T09:43:42.296Z,21.2
2022-09-12T09:44:42.357Z,21.1
2022-09-12T09:45:43.425Z,21.3
2022-09-12T09:46:42.477Z,21.2
2022-09-12T09:47:42.445Z,21.2
2022-09-12T09:48:42.676Z,21.3
2022-09-12T09:49:47.588Z,21.3
2022-09-12T09:50:43.338Z,21.4
2022-09-12T09:51:51.319Z,21.3
2022-09-12T09:52:42.623Z,21.4
2022-09-12T09:53:47.857Z,21.3
2022-09-12T09:54:42.711Z,21.4
2022-09-12T09:55:42.711Z,21.5
2022-09-12T09:56:43.065Z,21.6
2022-09-12T09:57:42.848Z,21.7
2022-09-12T09:58:42.805Z,21.7
2022-09-12T09:59:42.833Z,21.3
2022-09-12T10:00:42.947Z,21.3
2022-09-12T10:01:42.928Z,21.3
2022-09-12T10:02:48.253Z,21.6
2022-09-12T10:03:43.096Z,21.8
2022-09-12T10:04:44.067Z,21.8
2022-09-12T10:05:43.044Z,21.7
2022-09-12T10:06:43.029Z,21.5
2022-09-12T10:07:43.043Z,21.4
2022-09-12T10:08:48.386Z,21.3
2022-09-12T10:09:43.090Z,21.2
2022-09-12T10:10:43.211Z,21.3
2022-09-12T10:11:45.868Z,21.6
2022-09-12T10:12:43.309Z,21.8
2022-09-12T10:13:43.297Z,21.8
2022-09-12T10:14:43.329Z,21.9
2022-09-12T10:15:43.391Z,22.1
2022-09-12T10:16:43.385Z,22
2022-09-12T10:17:44.508Z,21.8
2022-09-12T10:18:43.525Z,21.9
2022-09-12T10:19:43.544Z,22
2022-09-12T10:20:43.953Z,22.1
2022-09-12T10:21:43.686Z,22.1
2022-09-12T10:22:43.748Z,22.2
2022-09-12T10:23:43.814Z,22.4
2022-09-12T10:24:43.847Z,22.7
2022-09-12T10:25:43.942Z,22.7
2022-09-12T10:26:44.063Z,22.4
2022-09-12T10:27:49.560Z,22.5
2022-09-12T10:28:44.230Z,22.6
2022-09-12T10:29:44.165Z,22.6
2022-09-12T10:30:48.286Z,22.8
2022-09-12T10:31:44.269Z,22.6
2022-09-12T10:32:44.332Z,22.4
2022-09-12T10:33:44.479Z,22.7
2022-09-12T10:34:45.078Z,22.7
2022-09-12T10:35:44.563Z,22.9
2022-09-12T10:36:44.943Z,22.9
2022-09-12T10:37:44.626Z,22.9
2022-09-12T10:38:44.797Z,23
2022-09-12T10:39:44.687Z,23.2
2022-09-12T10:40:44.757Z,23
2022-09-12T10:41:44.801Z,23.1
2022-09-12T10:42:44.742Z,23
2022-09-12T10:43:44.824Z,22.8
2022-09-12T10:44:44.846Z,22.8
2022-09-12T10:45:44.981Z,22.8
2022-09-12T10:46:45.181Z,22.9
2022-09-12T10:47:49.921Z,22.8
2022-09-12T10:48:45.048Z,22.9
2022-09-12T10:49:50.025Z,23
2022-09-12T10:50:45.029Z,22.8
2022-09-12T10:51:45.074Z,22.8
2022-09-12T10:52:45.125Z,22.6
2022-09-12T10:53:45.514Z,22.6
2022-09-12T10:54:45.148Z,22.8
2022-09-12T10:55:47.621Z,22.9
2022-09-12T10:56:45.248Z,23.1
2022-09-12T10:57:45.253Z,23.1
2022-09-12T10:58:45.263Z,23.1
2022-09-12T10:59:45.357Z,23.3
2022-09-12T11:00:45.351Z,23.2
2022-09-12T11:01:45.461Z,23.3
2022-09-12T11:02:45.760Z,23.4
2022-09-12T11:03:45.800Z,23.4
2022-09-12T11:04:45.830Z,23.7
2022-09-12T11:05:45.507Z,23.7
2022-09-12T11:06:45.846Z,23.6
2022-09-12T11:07:45.556Z,23.7
2022-09-12T11:08:45.578Z,23.6
2022-09-12T11:09:45.627Z,23.7
2022-09-12T11:10:45.676Z,24
2022-09-12T11:11:45.817Z,24
2022-09-12T11:12:45.743Z,24
2022-09-12T11:13:45.841Z,24.1
2022-09-12T11:14:45.938Z,24.3
2022-09-12T11:15:45.902Z,24.4
2022-09-12T11:16:45.906Z,24.5
2022-09-12T11:17:46.037Z,24.2
2022-09-12T11:18:45.951Z,24
2022-09-12T11:19:46.039Z,24.2
2022-09-12T11:20:46.022Z,24.4
2022-09-12T11:21:46.038Z,24.2
2022-09-12T11:22:46.169Z,24
2022-09-12T11:23:46.219Z,24
2022-09-12T11:24:46.204Z,24.4
2022-09-12T11:25:46.237Z,24.4
2022-09-12T11:26:46.486Z,24.3
2022-09-12T11:27:46.308Z,24.3
2022-09-12T11:28:47.331Z,24.3
2022-09-12T11:29:51.361Z,24.5
2022-09-12T11:30:46.400Z,24.6
2022-09-12T11:31:46.533Z,24.4
2022-09-12T11:32:51.940Z,24.5
2022-09-12T11:33:46.903Z,24.3
2022-09-12T11:34:47.084Z,24.3
2022-09-12T11:35:46.767Z,24.2
2022-09-12T11:36:46.813Z,24.3
2022-09-12T11:37:47.946Z,24.6
2022-09-12T11:38:47.192Z,24.8
2022-09-12T11:39:50.422Z,24.6
2022-09-12T11:40:47.133Z,24.4
2022-09-12T11:41:47.225Z,24.4
2022-09-12T11:42:47.236Z,24.6
2022-09-12T11:43:47.393Z,24.2
2022-09-12T11:44:47.356Z,23.8
2022-09-12T11:45:47.868Z,23.8
2022-09-12T11:46:52.520Z,24.3
2022-09-12T11:47:48.889Z,24.7
2022-09-12T11:48:48.491Z,25.1
2022-09-12T11:49:47.830Z,24.9
2022-09-12T11:50:47.976Z,25
2022-09-12T11:51:48.102Z,25
2022-09-12T11:52:48.086Z,24.7
2022-09-12T11:53:47.927Z,24.5
2022-09-12T11:54:51.445Z,24.3
2022-09-12T11:55:47.947Z,24.6
2022-09-12T11:56:47.962Z,24.7
2022-09-12T11:57:48.160Z,24.7
2022-09-12T11:58:48.499Z,24.5
2022-09-12T11:59:48.080Z,24.2
2022-09-12T12:00:48.080Z,24.7
2022-09-12T12:01:48.889Z,24.8
2022-09-12T12:02:48.500Z,24.7
2022-09-12T12:04:04.337Z,24.8
2022-09-12T12:04:48.281Z,24.8
2022-09-12T12:05:48.390Z,25.1
2022-09-12T12:06:48.497Z,25.3
2022-09-12T12:07:48.309Z,25.3
2022-09-12T12:08:48.566Z,25.1
2022-09-12T12:09:58.134Z,25.3
2022-09-12T12:10:48.345Z,25.1
2022-09-12T12:11:48.749Z,25
2022-09-12T12:12:48.499Z,25.1
2022-09-12T12:13:48.546Z,25.3
2022-09-12T12:14:48.493Z,25.5
2022-09-12T12:16:10.618Z,25.2
2022-09-12T12:16:48.517Z,25.2
2022-09-12T12:17:48.534Z,25.3
2022-09-12T12:18:48.853Z,24.9
2022-09-12T12:19:48.589Z,25
2022-09-12T12:20:48.647Z,24.8
2022-09-12T12:22:07.579Z,24.7
2022-09-12T12:22:48.895Z,24.6
2022-09-12T12:23:49.200Z,24.7
2022-09-12T12:24:48.824Z,25.1
2022-09-12T12:25:48.798Z,25.3
2022-09-12T12:26:48.894Z,25.2
2022-09-12T12:28:04.842Z,25.3
2022-09-12T12:28:49.037Z,25.3
2022-09-12T12:29:49.122Z,25.3
2022-09-12T12:30:51.055Z,25.2
2022-09-12T12:31:49.331Z,24.8
2022-09-12T12:32:49.100Z,24.6
2022-09-12T12:34:01.433Z,24.8
2022-09-12T12:34:54.051Z,24.8
2022-09-12T12:35:55.004Z,25.2
2022-09-12T12:36:49.354Z,25.7
2022-09-12T12:37:51.337Z,25.7
2022-09-12T12:38:49.371Z,25.7
2022-09-12T12:39:58.971Z,25.5
2022-09-12T12:40:49.301Z,25.5
2022-09-12T12:42:00.777Z,25.3
2022-09-12T12:42:59.923Z,25.6
2022-09-12T12:43:57.727Z,25.5
2022-09-12T12:44:49.742Z,25.5
2022-09-12T12:46:09.831Z,25.6
2022-09-12T12:46:49.687Z,25.3
2022-09-12T12:47:49.942Z,25.1
2022-09-12T12:48:51.232Z,25.1
2022-09-12T12:49:49.946Z,25.1
2022-09-12T12:50:50.145Z,25.2
2022-09-12T12:52:02.866Z,25.5
2022-09-12T12:52:57.364Z,25.9
2022-09-12T12:53:50.069Z,26
2022-09-12T12:54:54.004Z,26
2022-09-12T12:55:50.168Z,25.6
2022-09-12T12:56:50.447Z,25.7
2022-09-12T12:58:22.136Z,25.9
2022-09-12T12:58:50.622Z,26
2022-09-12T12:59:50.484Z,26.1
2022-09-12T13:00:57.923Z,26
2022-09-12T13:01:54.313Z,25.4
2022-09-12T13:02:55.587Z,25.4
2022-09-12T13:04:13.943Z,25.6
2022-09-12T13:04:55.595Z,25.9
2022-09-12T13:05:50.636Z,26.2
2022-09-12T13:07:02.603Z,26.3
2022-09-12T13:07:50.918Z,26
2022-09-12T13:08:51.052Z,26
2022-09-12T13:09:56.805Z,25.7
2022-09-12T13:10:50.830Z,25.8
2022-09-12T13:11:50.927Z,25.9
2022-09-12T13:13:00.937Z,25.9
2022-09-12T13:13:51.060Z,25.9
2022-09-12T13:14:56.197Z,26
2022-09-12T13:15:51.122Z,25.6
2022-09-12T13:16:51.319Z,25.2
2022-09-12T13:17:52.050Z,25.4
2022-09-12T13:19:00.045Z,25.5
2022-09-12T13:20:00.738Z,25.7
2022-09-12T13:20:51.162Z,25.6
2022-09-12T13:22:06.425Z,25.6
2022-09-12T13:22:51.212Z,25.9
2022-09-12T13:23:57.570Z,25.7
2022-09-12T13:25:08.864Z,25.7
2022-09-12T13:25:55.293Z,26.2
2022-09-12T13:26:51.365Z,25.8
2022-09-12T13:28:18.500Z,25.8
2022-09-12T13:28:51.405Z,25.5
2022-09-12T13:29:51.459Z,25.9
2022-09-12T13:31:40.339Z,26.1